Terminal Aerodrome Forecast
Issued by NWS

Home | Current Version | Previous Version | Graphics & Text | Print | Product List | Glossary On
Versions: 1 2 3 4 5 6 7 8 9 10 11 12 13 14 15 16 17 18 19
679
FTUS43 KICT 161222 AAA
TAFCNU
TAF AMD
KCNU 161222Z 1612/1712 34007KT P6SM SCT025
     FM162000 VRB03KT P6SM SKC=

USA.gov is the U.S. government's official web portal to all federal, state and local government web resources and services.